Time;durP1;ratioP1;P1;durP2;ratioP2;P2;SDS_P1;SDS_P2;PMS_P1;PMS_P2;Temp;Humidity;BMP_temperature;BMP_pressure;BME280_temperature;BME280_humidity;BME280_pressure;Samples;Min_cycle;Max_cycle;Signal;HPM_P1;HPM_P2
2022/08/30 00:01:28;;;;;;;2.33;1.70;;;13.60;12.90;;;;;;5094276;28;20404;-73
2022/08/30 00:03:54;;;;;;;3.13;2.10;;;13.60;15.60;;;;;;5094860;28;20392;-75
2022/08/30 00:06:21;;;;;;;3.40;2.10;;;13.60;15.60;;;;;;5093982;28;20494;-74
2022/08/30 00:08:48;;;;;;;1.70;1.60;;;13.50;13.50;;;;;;5094456;28;20482;-74
2022/08/30 00:11:18;;;;;;;2.93;1.77;;;13.50;17.00;;;;;;5094697;28;20441;-74
2022/08/30 00:13:45;;;;;;;2.20;1.90;;;13.50;15.50;;;;;;5094464;28;20498;-72
2022/08/30 00:16:12;;;;;;;2.00;1.80;;;13.50;22.00;;;;;;5093722;28;20381;-74
2022/08/30 00:18:38;;;;;;;2.23;2.03;;;13.50;20.30;;;;;;5093763;28;20835;-74
2022/08/30 00:21:05;;;;;;;1.93;1.77;;;13.50;16.00;;;;;;5094410;28;20400;-74
2022/08/30 00:23:31;;;;;;;2.00;1.90;;;13.50;18.50;;;;;;5094435;28;20407;-73
2022/08/30 00:26:01;;;;;;;1.77;1.67;;;13.50;22.80;;;;;;5093128;28;20427;-75
2022/08/30 00:28:27;;;;;;;1.63;1.53;;;13.50;22.10;;;;;;5094235;28;20455;-72
2022/08/30 00:30:53;;;;;;;1.83;1.73;;;13.50;22.20;;;;;;5094147;28;20432;-71
2022/08/30 00:33:20;;;;;;;2.30;2.10;;;13.50;28.10;;;;;;5094240;28;20449;-72
2022/08/30 00:35:49;;;;;;;2.17;1.97;;;13.50;27.60;;;;;;5093353;28;20483;-73
2022/08/30 00:38:15;;;;;;;2.63;1.77;;;13.50;33.10;;;;;;5093342;28;20450;-75
2022/08/30 00:40:43;;;;;;;1.60;1.50;;;13.50;37.10;;;;;;5094055;28;20753;-72
2022/08/30 00:43:13;;;;;;;2.30;2.10;;;13.60;45.10;;;;;;5093948;28;20403;-74
2022/08/30 00:45:50;;;;;;;1.73;1.63;;;13.60;44.10;;;;;;5093815;28;20493;-74
2022/08/30 00:48:29;;;;;;;2.60;2.40;;;13.60;51.60;;;;;;5093107;28;20997;-75
2022/08/30 00:51:03;;;;;;;1.97;1.87;;;13.70;50.20;;;;;;5093730;28;20396;-72
2022/08/30 00:53:36;;;;;;;1.70;1.37;;;13.70;61.80;;;;;;5092514;28;20415;-73
2022/08/30 00:56:04;;;;;;;1.90;1.60;;;13.70;61.80;;;;;;5092374;28;20488;-74
2022/08/30 00:58:52;;;;;;;1.97;1.60;;;13.80;69.80;;;;;;5093677;28;20439;-72
2022/08/30 01:01:21;;;;;;;1.73;1.63;;;13.80;66.00;;;;;;5093593;28;20445;-74
2022/08/30 01:03:48;;;;;;;2.20;2.00;;;13.90;73.40;;;;;;5093547;28;20453;-72
2022/08/30 01:09:41;;;;;;;2.03;1.63;;;13.90;84.60;;;;;;5093516;28;20994;-74
2022/08/30 01:12:08;;;;;;;1.80;1.70;;;14.00;77.40;;;;;;5093403;28;20399;-74
2022/08/30 01:14:33;;;;;;;3.80;2.07;;;14.00;82.20;;;;;;5092924;28;20730;-75
2022/08/30 01:17:00;;;;;;;1.83;1.73;;;14.00;92.10;;;;;;5092853;28;20465;-72
2022/08/30 01:19:42;;;;;;;2.53;1.43;;;14.00;87.00;;;;;;5093252;28;20473;-74
2022/08/30 01:22:17;;;;;;;1.70;1.40;;;14.00;93.20;;;;;;5093224;28;20398;-75
2022/08/30 01:24:46;;;;;;;3.00;1.77;;;14.10;89.10;;;;;;5093463;28;20906;-73
2022/08/30 01:27:14;;;;;;;1.73;1.63;;;14.10;93.40;;;;;;5092790;28;20392;-73
2022/08/30 01:29:43;;;;;;;3.43;1.83;;;14.20;93.40;;;;;;5093201;28;20447;-70
2022/08/30 01:32:23;;;;;;;1.63;1.53;;;14.20;93.30;;;;;;5092703;28;20391;-72
2022/08/30 01:34:49;;;;;;;2.47;1.43;;;14.20;93.60;;;;;;5093099;28;20408;-73
2022/08/30 01:37:20;;;;;;;1.67;1.57;;;14.20;93.60;;;;;;5092699;28;20453;-75
2022/08/30 01:39:47;;;;;;;1.63;1.30;;;14.30;94.60;;;;;;5093179;28;20490;-72
2022/08/30 01:42:16;;;;;;;2.07;1.70;;;14.20;93.50;;;;;;5093081;28;20402;-72
2022/08/30 01:44:45;;;;;;;3.80;1.57;;;14.20;93.60;;;;;;5093210;28;20449;-74
2022/08/30 01:47:21;;;;;;;1.63;1.53;;;14.30;93.60;;;;;;5092455;28;20407;-75
2022/08/30 01:49:47;;;;;;;2.10;1.67;;;14.30;94.00;;;;;;5094275;28;20490;-72
2022/08/30 01:52:15;;;;;;;1.60;1.50;;;14.30;93.60;;;;;;5096838;28;20407;-73
2022/08/30 01:54:42;;;;;;;2.10;1.73;;;14.30;94.80;;;;;;5097080;28;20497;-74
2022/08/30 01:57:11;;;;;;;1.50;1.40;;;14.20;93.60;;;;;;5096633;28;20432;-75
2022/08/30 01:59:39;;;;;;;1.27;1.17;;;14.10;93.50;;;;;;5097043;28;20415;-74
2022/08/30 02:02:05;;;;;;;2.40;1.23;;;14.00;93.50;;;;;;5097131;28;20423;-72
2022/08/30 02:04:35;;;;;;;3.00;1.37;;;14.00;93.50;;;;;;5097008;28;20396;-75
2022/08/30 02:09:47;;;;;;;1.80;1.70;;;14.00;93.50;;;;;;5096208;28;20380;-75
2022/08/30 02:12:16;;;;;;;1.50;1.17;;;14.00;93.50;;;;;;5096799;28;20490;-75
2022/08/30 02:14:42;;;;;;;1.87;1.77;;;14.00;93.50;;;;;;5096891;28;20400;-72
2022/08/30 02:17:10;;;;;;;1.70;1.60;;;14.00;93.00;;;;;;5096129;28;20423;-75
2022/08/30 02:19:36;;;;;;;1.87;1.77;;;13.90;93.50;;;;;;5096696;28;20910;-74
2022/08/30 02:22:02;;;;;;;2.00;1.80;;;13.90;92.10;;;;;;5096865;28;20407;-73
2022/08/30 02:24:31;;;;;;;2.80;1.37;;;13.90;93.40;;;;;;5096584;28;20444;-74
2022/08/30 02:26:57;;;;;;;1.80;1.67;;;13.90;91.20;;;;;;5094933;28;20772;-72
2022/08/30 02:29:24;;;;;;;1.70;1.60;;;13.80;93.40;;;;;;5096005;28;20451;-72
2022/08/30 02:31:50;;;;;;;1.80;1.60;;;13.90;93.90;;;;;;5095354;28;20178;-75
2022/08/30 02:34:17;;;;;;;1.50;1.40;;;13.80;96.70;;;;;;5096477;28;20396;-72
2022/08/30 02:36:43;;;;;;;2.27;1.50;;;13.90;98.00;;;;;;5094695;28;20415;-72
2022/08/30 02:39:11;;;;;;;1.77;1.67;;;13.80;95.50;;;;;;5096380;28;20415;-72
2022/08/30 02:41:37;;;;;;;1.87;1.73;;;13.90;94.80;;;;;;5096326;28;20407;-74
2022/08/30 02:44:04;;;;;;;1.80;1.67;;;13.90;97.30;;;;;;5096153;28;20403;-74
2022/08/30 02:46:30;;;;;;;1.70;1.57;;;13.80;95.40;;;;;;5095779;28;20934;-75
2022/08/30 02:49:07;;;;;;;1.53;1.23;;;13.80;97.90;;;;;;5095812;28;20512;-75
2022/08/30 02:51:34;;;;;;;2.13;1.93;;;13.80;95.80;;;;;;5096451;28;20900;-74
2022/08/30 02:54:06;;;;;;;1.73;1.63;;;13.80;94.00;;;;;;5096138;28;20399;-75
2022/08/30 02:56:32;;;;;;;1.60;1.50;;;13.80;95.00;;;;;;5095385;28;20395;-73
2022/08/30 02:58:58;;;;;;;1.77;1.67;;;13.70;93.40;;;;;;5095747;28;20500;-72
2022/08/30 03:01:27;;;;;;;1.77;1.67;;;13.70;93.70;;;;;;5094470;28;20398;-73
2022/08/30 03:03:52;;;;;;;1.70;1.60;;;13.70;93.40;;;;;;5094798;28;20542;-72
2022/08/30 03:06:19;;;;;;;1.60;1.50;;;13.70;99.90;;;;;;5095553;28;20449;-74
2022/08/30 03:08:44;;;;;;;6.63;1.70;;;13.70;93.40;;;;;;5095317;28;20204;-73
2022/08/30 03:11:13;;;;;;;4.90;2.03;;;13.70;93.40;;;;;;5096081;28;20391;-72
2022/08/30 03:13:40;;;;;;;2.33;2.13;;;13.80;93.40;;;;;;5095685;28;20162;-71
2022/08/30 03:16:05;;;;;;;1.90;1.80;;;13.80;93.40;;;;;;5094951;28;20539;-74
2022/08/30 03:18:34;;;;;;;2.00;1.80;;;13.80;93.50;;;;;;5095687;28;20449;-72
2022/08/30 03:21:00;;;;;;;2.00;1.80;;;13.80;93.60;;;;;;5096140;28;20421;-72
2022/08/30 03:23:27;;;;;;;1.87;1.73;;;13.90;93.70;;;;;;5095530;28;20479;-74
2022/08/30 03:25:52;;;;;;;2.40;2.00;;;13.90;93.50;;;;;;5094735;28;20418;-75
2022/08/30 03:28:37;;;;;;;3.20;2.10;;;13.90;95.10;;;;;;5094787;28;20459;-72
2022/08/30 03:31:04;;;;;;;2.20;2.00;;;13.90;93.60;;;;;;5095292;28;20396;-74
2022/08/30 03:33:30;;;;;;;2.00;1.90;;;13.80;94.10;;;;;;5093980;28;20498;-75
2022/08/30 03:35:56;;;;;;;2.33;2.13;;;13.80;94.60;;;;;;5095100;28;20408;-72
2022/08/30 03:38:31;;;;;;;1.80;1.70;;;13.80;95.90;;;;;;5094700;28;20492;-75
2022/08/30 03:41:08;;;;;;;2.50;2.30;;;13.80;93.40;;;;;;5094922;28;20192;-75
2022/08/30 03:43:41;;;;;;;1.73;1.63;;;13.80;93.40;;;;;;5094808;28;20395;-72
2022/08/30 03:46:07;;;;;;;2.03;1.93;;;13.70;93.40;;;;;;5094978;28;20404;-74
2022/08/30 03:48:33;;;;;;;1.80;1.70;;;13.70;93.40;;;;;;5095242;28;20450;-71
2022/08/30 03:50:59;;;;;;;3.23;2.00;;;13.70;93.40;;;;;;5093886;28;20495;-75
2022/08/30 03:53:25;;;;;;;4.33;1.93;;;13.70;93.30;;;;;;5094743;28;20801;-74
2022/08/30 03:55:57;;;;;;;2.00;1.90;;;13.60;93.30;;;;;;5094830;28;20425;-75
2022/08/30 03:58:23;;;;;;;1.93;1.80;;;13.50;93.30;;;;;;5094290;28;20431;-72
2022/08/30 04:00:49;;;;;;;3.47;2.00;;;13.50;93.40;;;;;;5094656;28;20910;-72
2022/08/30 04:03:17;;;;;;;2.00;1.80;;;13.50;93.30;;;;;;5094031;28;20942;-72
2022/08/30 04:05:44;;;;;;;2.40;2.17;;;13.50;93.30;;;;;;5094618;28;20430;-75
2022/08/30 04:08:10;;;;;;;1.87;1.77;;;13.50;93.30;;;;;;5093951;28;20509;-72
2022/08/30 04:10:36;;;;;;;3.23;2.70;;;13.50;93.30;;;;;;5093399;28;20769;-72
2022/08/30 04:13:01;;;;;;;2.40;2.20;;;13.50;93.40;;;;;;5094201;28;20513;-72
2022/08/30 04:15:27;;;;;;;2.57;1.77;;;13.50;93.30;;;;;;5094397;28;20199;-75
2022/08/30 04:17:53;;;;;;;2.80;2.60;;;13.50;93.30;;;;;;5093800;28;20219;-72
2022/08/30 04:20:20;;;;;;;2.33;1.50;;;13.40;93.40;;;;;;5092629;28;20563;-72
2022/08/30 04:22:46;;;;;;;2.47;1.80;;;13.40;93.30;;;;;;5094610;28;20410;-75
2022/08/30 04:25:12;;;;;;;2.13;1.93;;;13.40;95.20;;;;;;5094338;28;20411;-75
2022/08/30 04:27:38;;;;;;;2.47;2.20;;;13.40;93.30;;;;;;5093412;28;20978;-71
2022/08/30 04:30:04;;;;;;;2.10;1.90;;;13.30;93.20;;;;;;5094329;28;20478;-75
2022/08/30 04:32:33;;;;;;;1.80;1.70;;;13.30;95.00;;;;;;5094167;28;20638;-75
2022/08/30 04:34:59;;;;;;;2.30;2.03;;;13.30;93.20;;;;;;5094130;28;20475;-74
2022/08/30 04:37:25;;;;;;;7.80;2.20;;;13.30;93.30;;;;;;5093325;28;20472;-74
2022/08/30 04:39:55;;;;;;;4.80;2.67;;;13.30;93.20;;;;;;5093773;28;20404;-74
2022/08/30 04:42:21;;;;;;;6.27;2.47;;;13.20;93.20;;;;;;5092289;28;20822;-75
2022/08/30 04:44:47;;;;;;;3.80;2.93;;;13.20;93.20;;;;;;5094006;28;20434;-72
2022/08/30 04:47:12;;;;;;;5.20;2.40;;;13.20;93.20;;;;;;5093312;28;20165;-72
2022/08/30 04:49:38;;;;;;;3.00;2.73;;;13.20;93.20;;;;;;5093748;28;20182;-75
2022/08/30 04:52:07;;;;;;;2.60;2.40;;;13.20;93.20;;;;;;5093895;28;20170;-74
2022/08/30 04:54:34;;;;;;;15.67;2.70;;;13.20;94.30;;;;;;5093958;28;20450;-75
2022/08/30 04:56:59;;;;;;;4.53;2.40;;;13.10;93.20;;;;;;5091960;28;20495;-72
2022/08/30 04:59:25;;;;;;;7.53;2.37;;;13.20;93.20;;;;;;5093034;28;20526;-75
2022/08/30 05:01:51;;;;;;;4.20;2.50;;;13.20;93.20;;;;;;5093420;28;20542;-72
2022/08/30 05:04:17;;;;;;;2.27;2.07;;;13.20;93.20;;;;;;5092528;28;20417;-75
2022/08/30 05:06:43;;;;;;;2.60;1.87;;;13.20;93.90;;;;;;5092932;28;20450;-73
2022/08/30 05:09:10;;;;;;;3.40;2.77;;;13.20;93.20;;;;;;5093503;28;20737;-72
2022/08/30 05:11:37;;;;;;;7.13;2.60;;;13.20;93.20;;;;;;5093441;28;21074;-72
2022/08/30 05:14:06;;;;;;;5.50;2.07;;;13.20;94.20;;;;;;5093562;28;20438;-73
2022/08/30 05:16:32;;;;;;;3.17;2.20;;;13.20;93.20;;;;;;5091771;28;20430;-75
2022/08/30 05:18:58;;;;;;;2.30;2.10;;;13.20;93.20;;;;;;5092790;28;20443;-73
2022/08/30 05:21:29;;;;;;;2.50;2.30;;;13.30;93.20;;;;;;5093245;28;20407;-75
2022/08/30 05:23:59;;;;;;;2.90;2.03;;;13.30;93.30;;;;;;5091586;28;20180;-75
2022/08/30 05:26:29;;;;;;;5.57;2.17;;;13.30;93.20;;;;;;5092390;28;20412;-75
2022/08/30 05:28:55;;;;;;;2.67;2.47;;;13.30;94.10;;;;;;5092154;28;20546;-72
2022/08/30 05:31:22;;;;;;;4.13;2.10;;;13.40;97.00;;;;;;5092263;28;20516;-72
2022/08/30 05:33:50;;;;;;;3.00;2.80;;;13.40;95.10;;;;;;5093234;28;20234;-75
2022/08/30 05:36:27;;;;;;;3.23;3.03;;;13.40;98.70;;;;;;5092355;28;20477;-72
2022/08/30 05:38:54;;;;;;;3.73;2.80;;;13.50;99.90;;;;;;5092673;28;20422;-71
2022/08/30 05:41:22;;;;;;;3.13;2.87;;;13.60;99.90;;;;;;5092430;28;20585;-72
2022/08/30 05:43:50;;;;;;;3.33;3.07;;;13.60;99.90;;;;;;5091827;28;20411;-75
2022/08/30 05:46:20;;;;;;;3.10;2.30;;;13.70;99.90;;;;;;5092342;28;20399;-72
2022/08/30 05:48:47;;;;;;;7.77;2.63;;;13.80;99.90;;;;;;5091538;28;21005;-75
2022/08/30 05:51:18;;;;;;;5.00;2.43;;;13.90;99.90;;;;;;5091922;28;20992;-72
2022/08/30 05:53:46;;;;;;;2.47;2.27;;;13.90;99.90;;;;;;5092846;28;20407;-72
2022/08/30 05:56:16;;;;;;;2.17;1.97;;;14.00;99.90;;;;;;5091331;28;20427;-74
2022/08/30 05:58:42;;;;;;;3.20;2.00;;;14.10;99.90;;;;;;5092439;28;20432;-73
2022/08/30 06:01:20;;;;;;;2.43;2.23;;;14.10;99.90;;;;;;5091690;28;20765;-75
2022/08/30 06:03:47;;;;;;;7.47;2.73;;;14.10;99.90;;;;;;5093035;28;20419;-71
2022/08/30 06:06:13;;;;;;;2.27;1.97;;;14.10;99.90;;;;;;5092112;28;20407;-75
2022/08/30 06:08:38;;;;;;;2.20;2.03;;;14.30;99.90;;;;;;5092789;28;20808;-72
2022/08/30 06:11:04;;;;;;;2.50;2.17;;;14.40;99.90;;;;;;5092891;28;20434;-72
2022/08/30 06:13:31;;;;;;;2.17;1.90;;;14.50;99.90;;;;;;5091730;28;20166;-75
2022/08/30 06:15:57;;;;;;;2.43;2.17;;;14.60;99.90;;;;;;5090760;28;20634;-71
2022/08/30 06:18:23;;;;;;;4.30;2.10;;;14.70;99.90;;;;;;5091315;28;20466;-72
2022/08/30 06:20:50;;;;;;;2.63;2.43;;;14.90;99.90;;;;;;5092690;28;20169;-75
2022/08/30 06:23:16;;;;;;;3.43;1.93;;;15.00;99.90;;;;;;5092894;28;20404;-72
2022/08/30 06:25:43;;;;;;;3.77;3.40;;;15.20;99.90;;;;;;5092731;28;20908;-72
2022/08/30 06:28:10;;;;;;;2.57;2.20;;;15.30;99.90;;;;;;5090576;28;20463;-72
2022/08/30 06:30:39;;;;;;;3.13;1.63;;;15.50;99.90;;;;;;5092675;28;20400;-72
2022/08/30 06:33:05;;;;;;;7.23;2.17;;;15.60;99.90;;;;;;5092618;28;20384;-75
2022/08/30 06:35:50;;;;;;;2.10;1.90;;;15.70;99.90;;;;;;5092573;28;20752;-72
2022/08/30 06:38:18;;;;;;;4.07;1.57;;;15.80;99.90;;;;;;5094711;28;20193;-73
2022/08/30 06:40:56;;;;;;;;;;;;;;;;;;;;;
2022/08/30 06:43:22;;;;;;;2.57;1.60;;;16.00;99.90;;;;;;5096439;28;20496;-73
2022/08/30 06:45:48;;;;;;;1.40;1.30;;;16.20;99.90;;;;;;5096184;28;20410;-76
2022/08/30 06:48:14;;;;;;;2.03;1.60;;;16.30;99.90;;;;;;5094254;28;20785;-75
2022/08/30 06:50:42;;;;;;;2.10;1.70;;;16.40;99.90;;;;;;5095127;28;20465;-73
2022/08/30 06:53:08;;;;;;;1.60;1.43;;;16.50;99.90;;;;;;5095964;28;20438;-72
2022/08/30 06:55:35;;;;;;;1.60;1.40;;;16.50;99.90;;;;;;5095603;28;20410;-75
2022/08/30 06:58:02;;;;;;;2.27;1.50;;;16.50;99.90;;;;;;5095375;28;20443;-74
2022/08/30 07:00:29;;;;;;;1.50;1.40;;;16.50;99.90;;;;;;5094664;28;20415;-72
2022/08/30 07:02:54;;;;;;;1.53;1.43;;;16.50;99.90;;;;;;5095790;28;20510;-76
2022/08/30 07:05:22;;;;;;;2.50;1.50;;;16.70;99.90;;;;;;5096006;28;20494;-72
2022/08/30 07:07:48;;;;;;;1.67;1.57;;;16.80;99.90;;;;;;5093850;28;20459;-75
2022/08/30 07:10:15;;;;;;;1.50;1.40;;;16.90;99.90;;;;;;5095258;28;21172;-73
2022/08/30 07:12:49;;;;;;;1.80;1.70;;;17.00;99.90;;;;;;5096039;28;20411;-74
2022/08/30 07:15:21;;;;;;;2.30;1.70;;;17.10;99.90;;;;;;5094617;28;20437;-76
2022/08/30 07:20:32;;;;;;;3.33;1.67;;;17.30;99.90;;;;;;5096037;28;20460;-76
2022/08/30 07:23:10;;;;;;;1.63;1.33;;;17.50;99.90;;;;;;5095461;28;20411;-75
2022/08/30 07:25:40;;;;;;;1.60;1.50;;;17.60;99.90;;;;;;5095544;28;20406;-72
2022/08/30 07:28:12;;;;;;;1.87;1.53;;;17.70;99.90;;;;;;5094385;28;20555;-72
2022/08/30 07:30:43;;;;;;;2.90;1.30;;;17.70;99.90;;;;;;5094009;28;20438;-75
2022/08/30 07:33:09;;;;;;;2.77;1.77;;;17.80;99.90;;;;;;5095473;28;20439;-76
2022/08/30 07:35:36;;;;;;;1.60;1.10;;;17.90;99.90;;;;;;5094118;28;20415;-76
2022/08/30 07:38:02;;;;;;;1.33;1.23;;;17.90;94.90;;;;;;5093465;28;20580;-75
2022/08/30 07:40:48;;;;;;;2.70;1.00;;;17.90;94.80;;;;;;5095204;28;20419;-76
2022/08/30 07:43:52;;;;;;;1.73;1.30;;;17.90;70.50;;;;;;5095058;28;20414;-76
2022/08/30 07:46:30;;;;;;;3.90;1.40;;;17.90;75.40;;;;;;5093074;28;20443;-73
2022/08/30 07:48:59;;;;;;;2.07;1.80;;;17.80;75.20;;;;;;5092290;28;20462;-76
2022/08/30 07:51:27;;;;;;;3.50;1.70;;;17.70;79.50;;;;;;5094977;28;20473;-76
2022/08/30 07:53:54;;;;;;;1.70;1.30;;;17.80;85.20;;;;;;5095161;28;20403;-76
2022/08/30 07:56:20;;;;;;;1.30;1.20;;;17.80;80.80;;;;;;5094202;28;20408;-73
2022/08/30 07:58:49;;;;;;;1.93;1.50;;;17.80;68.10;;;;;;5093444;28;20589;-73
2022/08/30 08:01:16;;;;;;;1.53;1.40;;;17.80;71.00;;;;;;5093562;28;20457;-71
2022/08/30 08:03:55;;;;;;;;;;;;;;;;;;;;;
2022/08/30 08:06:26;;;;;;;1.60;1.30;;;17.80;58.40;;;;;;5093670;28;20434;-76
2022/08/30 08:09:20;;;;;;;3.00;1.47;;;17.90;61.00;;;;;;5093008;28;20520;-73
2022/08/30 08:11:55;;;;;;;7.23;1.30;;;18.00;51.70;;;;;;5093334;28;20443;-73
2022/08/30 08:14:22;;;;;;;1.60;1.30;;;18.00;47.00;;;;;;5094538;28;20407;-73
2022/08/30 08:16:48;;;;;;;1.87;1.27;;;18.10;37.10;;;;;;5093861;28;20884;-76
2022/08/30 08:19:50;;;;;;;2.60;1.27;;;18.10;16.20;;;;;;5093143;28;20485;-76
2022/08/30 08:22:16;;;;;;;1.43;1.33;;;18.10;1.80;;;;;;5093065;28;20423;-76
2022/08/30 08:24:42;;;;;;;2.23;1.20;;;18.00;1.00;;;;;;5093861;28;20492;-73
2022/08/30 08:27:08;;;;;;;1.27;1.17;;;18.10;1.00;;;;;;5093649;28;20947;-73
2022/08/30 08:29:34;;;;;;;1.37;1.20;;;18.20;1.00;;;;;;5092830;28;20292;-71
2022/08/30 08:32:00;;;;;;;1.50;1.30;;;18.30;1.00;;;;;;5094222;28;20409;-76
2022/08/30 08:34:26;;;;;;;1.53;1.43;;;18.30;1.00;;;;;;5094247;28;20783;-77
2022/08/30 08:36:52;;;;;;;4.00;1.77;;;18.40;1.00;;;;;;5093493;28;20752;-77
2022/08/30 08:39:19;;;;;;;2.07;1.10;;;18.50;1.00;;;;;;5092680;28;20205;-76
2022/08/30 08:42:15;;;;;;;1.70;1.27;;;18.50;1.00;;;;;;5092318;28;20426;-73
2022/08/30 08:44:50;;;;;;;1.80;1.70;;;18.40;1.00;;;;;;5066278;28;20415;-76
2022/08/30 08:47:36;;;;;;;1.87;1.30;;;18.40;1.00;;;;;;5092078;28;20450;-75
2022/08/30 08:50:05;;;;;;;1.70;1.60;;;18.40;1.00;;;;;;5092639;28;20423;-74
2022/08/30 08:55:28;;;;;;;1.20;1.00;;;18.50;1.00;;;;;;5093750;28;20388;-74
2022/08/30 08:57:56;;;;;;;2.40;1.63;;;18.50;1.00;;;;;;5093006;28;20465;-76
2022/08/30 09:00:21;;;;;;;1.40;1.30;;;18.60;1.00;;;;;;5092064;28;20415;-72
2022/08/30 09:02:56;;;;;;;1.47;1.07;;;18.70;1.00;;;;;;5092581;28;20438;-74
2022/08/30 09:05:25;;;;;;;2.60;1.20;;;18.90;1.00;;;;;;5092296;28;20410;-75
2022/08/30 09:08:03;;;;;;;1.33;1.00;;;19.00;1.00;;;;;;5091504;28;20998;-72
2022/08/30 09:10:39;;;;;;;1.27;1.17;;;19.20;1.00;;;;;;5092368;28;20784;-76
2022/08/30 09:13:05;;;;;;;3.00;1.10;;;19.30;1.00;;;;;;5092252;28;20411;-75
2022/08/30 09:15:32;;;;;;;4.30;1.20;;;19.40;1.00;;;;;;5093428;28;20464;-76
2022/08/30 09:18:02;;;;;;;1.20;1.10;;;19.50;1.00;;;;;;5091648;28;20957;-75
2022/08/30 09:20:42;;;;;;;1.10;1.00;;;19.80;1.00;;;;;;5092060;28;20422;-70
2022/08/30 09:23:31;;;;;;;1.20;1.00;;;19.80;1.00;;;;;;5092303;28;20506;-74
2022/08/30 09:26:09;;;;;;;2.40;1.30;;;19.70;1.00;;;;;;5092022;28;20431;-71
2022/08/30 09:28:46;;;;;;;1.30;1.00;;;19.80;1.00;;;;;;5093297;28;20451;-71
2022/08/30 09:35:09;;;;;;;;;;;;;;;;;;;;;
2022/08/30 09:38:03;;;;;;;2.77;1.10;;;20.70;1.00;;;;;;5091994;28;20399;-74
2022/08/30 09:40:44;;;;;;;1.00;0.90;;;20.70;1.00;;;;;;5093186;28;20970;-70
2022/08/30 09:43:30;;;;;;;1.27;1.03;;;20.60;1.00;;;;;;5093221;28;20411;-70
2022/08/30 09:46:52;;;;;;;1.00;0.90;;;20.20;1.00;;;;;;5092917;28;20490;-70
2022/08/30 09:53:10;;;;;;;;;;;;;;;;;;;;;
2022/08/30 09:55:59;;;;;;;3.90;1.20;;;19.00;1.00;;;;;;5092719;28;20726;-74
2022/08/30 09:59:01;;;;;;;1.77;1.10;;;18.70;1.00;;;;;;5092830;28;20431;-70
2022/08/30 10:01:37;;;;;;;2.30;1.17;;;18.60;1.00;;;;;;5091772;28;20430;-69
2022/08/30 10:04:21;;;;;;;1.80;1.10;;;18.70;1.00;;;;;;5092859;28;20399;-74
2022/08/30 10:07:21;;;;;;;1.50;0.93;;;18.70;1.00;;;;;;5090890;28;20885;-70
2022/08/30 10:13:33;;;;;;;1.10;1.00;;;19.50;1.00;;;;;;5096461;28;20469;-74
2022/08/30 10:16:12;;;;;;;1.67;1.10;;;20.60;1.00;;;;;;5095164;28;20490;-73
2022/08/30 10:18:57;;;;;;;0.97;0.80;;;21.00;1.00;;;;;;5096971;28;20431;-70
2022/08/30 10:21:58;;;;;;;1.23;1.00;;;20.90;1.00;;;;;;5095501;28;20407;-74
2022/08/30 10:24:33;;;;;;;1.67;1.17;;;20.80;1.00;;;;;;5062275;28;20899;-74
2022/08/30 10:27:28;;;;;;;1.27;1.10;;;21.10;1.00;;;;;;5095968;28;20391;-71
2022/08/30 10:30:02;;;;;;;1.23;0.80;;;21.80;1.00;;;;;;5094369;28;20459;-71
2022/08/30 10:32:48;;;;;;;1.70;0.97;;;22.30;1.00;;;;;;5096147;28;20751;-70
2022/08/30 10:35:23;;;;;;;1.00;0.70;;;22.60;1.00;;;;;;5096660;28;20398;-71
2022/08/30 10:38:02;;;;;;;1.10;0.90;;;22.20;1.00;;;;;;5094644;28;20431;-70
2022/08/30 10:43:31;;;;;;;1.60;0.80;;;22.40;1.00;;;;;;5096679;28;20453;-75
2022/08/30 10:46:01;;;;;;;1.30;1.00;;;22.00;1.00;;;;;;5096257;28;20478;-75
2022/08/30 10:48:35;;;;;;;2.33;1.90;;;22.50;1.00;;;;;;5096007;28;20795;-75
2022/08/30 10:51:09;;;;;;;2.60;0.70;;;23.00;1.00;;;;;;5094518;28;20407;-75
2022/08/30 10:54:10;;;;;;;1.50;1.10;;;23.60;1.00;;;;;;5096202;28;20399;-74
2022/08/30 10:56:39;;;;;;;1.70;0.80;;;24.20;1.00;;;;;;5090091;28;20408;-75
2022/08/30 10:59:05;;;;;;;1.10;0.90;;;24.50;1.00;;;;;;5096131;28;20454;-70
2022/08/30 11:01:43;;;;;;;1.00;0.70;;;24.60;1.00;;;;;;5095968;28;20424;-70
2022/08/30 11:04:48;;;;;;;1.20;0.70;;;24.60;1.00;;;;;;5095872;28;20244;-74
2022/08/30 11:07:17;;;;;;;1.13;0.77;;;24.50;1.00;;;;;;5076074;28;20498;-70
2022/08/30 11:09:45;;;;;;;2.10;1.00;;;24.50;1.00;;;;;;5094507;28;20522;-74
2022/08/30 11:12:20;;;;;;;1.20;0.70;;;24.80;1.00;;;;;;5094778;28;20412;-75
2022/08/30 11:14:46;;;;;;;2.70;0.70;;;25.00;1.00;;;;;;5094621;28;20880;-70
2022/08/30 11:17:28;;;;;;;4.50;0.80;;;25.40;1.00;;;;;;5095288;28;20407;-71
2022/08/30 11:19:57;;;;;;;1.30;0.60;;;25.10;1.00;;;;;;5095824;28;20753;-75
2022/08/30 11:22:35;;;;;;;2.13;0.70;;;25.30;1.00;;;;;;5094138;28;20762;-71
2022/08/30 11:25:14;;;;;;;1.20;0.67;;;25.50;1.00;;;;;;5093825;28;20792;-70
2022/08/30 11:27:57;;;;;;;1.30;0.50;;;25.80;1.00;;;;;;5094688;28;20435;-71
2022/08/30 11:30:25;;;;;;;0.90;0.70;;;25.80;1.00;;;;;;5095680;28;20407;-75
2022/08/30 11:33:03;;;;;;;1.00;0.70;;;25.50;1.00;;;;;;5094403;28;20415;-71
2022/08/30 11:35:48;;;;;;;0.93;0.60;;;24.90;1.00;;;;;;5095274;28;20449;-75
2022/08/30 11:38:27;;;;;;;0.90;0.60;;;24.80;1.00;;;;;;5094643;28;20451;-70
2022/08/30 11:40:56;;;;;;;2.60;0.60;;;24.80;1.00;;;;;;5094344;28;20407;-71
2022/08/30 11:43:34;;;;;;;1.23;0.60;;;24.70;1.00;;;;;;5095337;28;20787;-71
2022/08/30 11:46:16;;;;;;;1.10;0.50;;;24.60;1.00;;;;;;5094601;28;20794;-74
2022/08/30 11:48:50;;;;;;;1.30;0.60;;;24.50;1.00;;;;;;5093936;28;20858;-73
2022/08/30 11:51:28;;;;;;;1.10;0.70;;;25.00;1.00;;;;;;5095109;28;20411;-71
2022/08/30 11:54:05;;;;;;;1.00;0.60;;;25.50;1.00;;;;;;5095077;28;20403;-75
2022/08/30 11:57:04;;;;;;;2.30;0.60;;;25.60;1.00;;;;;;5094171;28;20400;-75
2022/08/30 11:59:53;;;;;;;0.80;0.50;;;26.20;1.00;;;;;;5094190;28;20518;-75
2022/08/30 12:02:57;;;;;;;1.00;0.50;;;25.70;1.00;;;;;;5093865;28;20435;-72
2022/08/30 12:05:37;;;;;;;0.80;0.50;;;26.00;1.00;;;;;;5094806;28;20407;-73
2022/08/30 12:08:26;;;;;;;1.23;0.60;;;26.40;1.00;;;;;;5093792;28;20959;-72
2022/08/30 12:10:55;;;;;;;1.50;0.50;;;26.10;1.00;;;;;;5092953;28;20420;-74
2022/08/30 12:13:33;;;;;;;0.80;0.50;;;25.20;1.00;;;;;;5094673;28;20487;-70
2022/08/30 12:16:20;;;;;;;0.80;0.50;;;24.20;1.00;;;;;;5094294;28;20403;-73
2022/08/30 12:19:13;;;;;;;1.20;0.50;;;23.60;1.00;;;;;;5093778;28;21029;-72
2022/08/30 12:21:39;;;;;;;1.00;0.70;;;22.50;1.00;;;;;;5094385;28;20461;-75
2022/08/30 12:24:17;;;;;;;0.80;0.50;;;21.50;99.90;;;;;;5094407;28;20412;-71
2022/08/30 12:26:45;;;;;;;1.07;0.60;;;20.90;99.90;;;;;;5093426;28;20418;-72
2022/08/30 12:29:32;;;;;;;0.97;0.70;;;20.80;1.00;;;;;;5094061;28;20455;-71
2022/08/30 12:32:06;;;;;;;1.10;0.60;;;21.00;1.00;;;;;;5094351;28;20400;-70
2022/08/30 12:34:49;;;;;;;1.00;0.70;;;21.20;1.00;;;;;;5093721;28;20411;-75
2022/08/30 12:37:23;;;;;;;2.70;0.70;;;21.60;1.00;;;;;;5093049;28;20404;-74
2022/08/30 12:40:05;;;;;;;1.03;0.70;;;22.30;1.00;;;;;;5094158;28;20495;-76
2022/08/30 12:42:34;;;;;;;1.00;0.60;;;22.90;1.00;;;;;;5094149;28;20443;-75
2022/08/30 12:45:05;;;;;;;0.90;0.60;;;23.20;1.00;;;;;;5094271;28;20417;-71
2022/08/30 12:47:51;;;;;;;0.90;0.60;;;23.70;1.00;;;;;;5091682;28;20765;-71
2022/08/30 12:50:21;;;;;;;1.10;0.60;;;24.40;1.00;;;;;;5093910;28;20415;-76
2022/08/30 12:53:03;;;;;;;1.33;0.60;;;24.90;1.00;;;;;;5093760;28;20399;-75
2022/08/30 12:55:34;;;;;;;1.27;0.80;;;25.40;1.00;;;;;;5093468;28;20439;-75
2022/08/30 12:58:03;;;;;;;0.97;0.63;;;25.60;1.00;;;;;;5092929;28;20518;-71
2022/08/30 13:00:39;;;;;;;1.10;0.60;;;25.50;1.00;;;;;;5093836;28;20404;-76
2022/08/30 13:03:35;;;;;;;1.10;0.90;;;25.40;1.00;;;;;;5093591;28;20422;-75
2022/08/30 13:06:02;;;;;;;1.07;0.60;;;24.70;1.00;;;;;;5093102;28;20408;-74
2022/08/30 13:08:44;;;;;;;1.03;0.60;;;24.30;1.00;;;;;;5093556;28;20463;-70
2022/08/30 13:11:26;;;;;;;1.20;0.63;;;24.10;1.00;;;;;;5093359;28;20418;-75
2022/08/30 13:13:53;;;;;;;0.97;0.60;;;24.20;1.00;;;;;;5092038;28;20815;-71
2022/08/30 13:16:24;;;;;;;1.23;0.73;;;24.10;1.00;;;;;;5093247;28;20430;-76
2022/08/30 13:19:15;;;;;;;1.10;0.80;;;24.20;1.00;;;;;;5093398;28;20428;-76
2022/08/30 13:21:54;;;;;;;0.90;0.60;;;24.30;1.00;;;;;;5082451;28;20423;-75
2022/08/30 13:24:20;;;;;;;1.00;0.67;;;24.40;1.00;;;;;;5093420;28;20414;-75
2022/08/30 13:26:46;;;;;;;2.43;0.83;;;24.20;1.00;;;;;;5092476;28;20412;-73
2022/08/30 13:29:24;;;;;;;1.10;0.70;;;23.30;1.00;;;;;;5093322;28;20669;-71
2022/08/30 13:31:51;;;;;;;1.00;0.70;;;23.20;1.00;;;;;;5092455;28;20491;-74
2022/08/30 13:34:21;;;;;;;1.00;0.70;;;23.30;1.00;;;;;;5093285;28;20399;-71
2022/08/30 13:36:57;;;;;;;1.80;0.80;;;23.00;1.00;;;;;;5092446;28;20418;-75
2022/08/30 13:39:26;;;;;;;3.00;0.90;;;22.70;1.00;;;;;;5093314;28;20427;-75
2022/08/30 13:41:53;;;;;;;1.00;0.70;;;22.00;1.00;;;;;;5093173;28;20457;-76
2022/08/30 13:44:19;;;;;;;1.10;0.70;;;21.90;1.00;;;;;;5091975;28;20918;-70
2022/08/30 13:46:49;;;;;;;4.63;0.90;;;21.90;1.00;;;;;;5091539;28;20404;-74